createdAt,value
2018-07-21T00:00:41.485Z,6.77
2018-07-21T00:03:10.405Z,7.17
2018-07-21T00:05:39.324Z,8.00
2018-07-21T00:08:08.320Z,7.40
2018-07-21T00:10:37.208Z,7.27
2018-07-21T00:13:06.141Z,7.13
2018-07-21T00:15:35.141Z,7.57
2018-07-21T00:18:04.139Z,7.03
2018-07-21T00:20:33.052Z,7.80
2018-07-21T00:23:01.935Z,7.00
2018-07-21T00:25:30.792Z,7.30
2018-07-21T00:27:59.775Z,7.57
2018-07-21T00:30:28.705Z,7.27
2018-07-21T00:32:57.596Z,7.83
2018-07-21T00:35:26.787Z,7.80
2018-07-21T00:37:55.653Z,7.33
2018-07-21T00:40:24.580Z,6.87
2018-07-21T00:42:53.465Z,7.50
2018-07-21T00:45:22.375Z,7.50
2018-07-21T00:47:50.888Z,7.03
2018-07-21T00:50:19.783Z,7.77
2018-07-21T00:52:48.620Z,7.40
2018-07-21T00:55:17.512Z,7.93
2018-07-21T00:57:46.400Z,7.43
2018-07-21T01:00:15.802Z,7.27
2018-07-21T01:02:44.862Z,7.33
2018-07-21T01:05:13.768Z,7.53
2018-07-21T01:07:42.600Z,7.40
2018-07-21T01:10:11.597Z,7.10
2018-07-21T01:12:40.516Z,7.87
2018-07-21T01:15:09.587Z,7.40
2018-07-21T01:17:38.671Z,7.33
2018-07-21T01:20:08.067Z,7.33
2018-07-21T01:22:37.025Z,8.00
2018-07-21T01:25:07.100Z,7.83
2018-07-21T01:27:36.064Z,8.23
2018-07-21T01:30:05.796Z,7.57
2018-07-21T01:32:34.795Z,8.07
2018-07-21T01:35:03.820Z,7.70
2018-07-21T01:37:32.720Z,8.00
2018-07-21T01:40:01.534Z,7.50
2018-07-21T01:42:30.496Z,7.60
2018-07-21T01:44:59.384Z,8.10
2018-07-21T01:47:28.312Z,7.43
2018-07-21T01:49:57.160Z,8.00
2018-07-21T01:52:26.153Z,7.60
2018-07-21T01:54:55.007Z,7.63
2018-07-21T01:57:23.908Z,7.40
2018-07-21T01:59:52.888Z,7.00
2018-07-21T02:02:21.760Z,8.00
2018-07-21T02:04:50.628Z,8.23
2018-07-21T02:07:19.484Z,8.77
2018-07-21T02:09:48.027Z,7.60
2018-07-21T02:12:16.917Z,7.90
2018-07-21T02:14:45.951Z,8.37
2018-07-21T02:17:14.851Z,7.90
2018-07-21T02:19:43.311Z,8.30
2018-07-21T02:22:12.182Z,7.60
2018-07-21T02:24:41.068Z,8.43
2018-07-21T02:27:10.919Z,7.63
2018-07-21T02:29:40.092Z,8.37
2018-07-21T02:32:08.991Z,8.00
2018-07-21T02:34:37.867Z,8.70
2018-07-21T02:37:06.805Z,7.87
2018-07-21T02:39:35.684Z,7.77
2018-07-21T02:42:04.633Z,8.50
2018-07-21T02:44:33.481Z,7.90
2018-07-21T02:47:02.419Z,7.90
2018-07-21T02:49:31.277Z,8.27
2018-07-21T02:52:00.247Z,7.47
2018-07-21T03:04:44.796Z,8.73
2018-07-21T03:07:14.080Z,8.60
2018-07-21T03:09:43.439Z,7.47
2018-07-21T03:12:29.528Z,8.40
2018-07-21T03:15:00.268Z,8.70
2018-07-21T03:17:29.588Z,7.50
2018-07-21T03:19:58.484Z,8.47
2018-07-21T03:22:27.447Z,8.33
2018-07-21T03:24:56.336Z,8.07
2018-07-21T03:27:25.252Z,8.40
2018-07-21T03:29:53.783Z,8.53
2018-07-21T03:32:22.736Z,8.50
2018-07-21T03:34:51.576Z,8.00
2018-07-21T03:37:20.457Z,8.53
2018-07-21T03:39:49.349Z,8.40
2018-07-21T03:42:18.236Z,7.87
2018-07-21T03:44:47.127Z,8.33
2018-07-21T03:47:15.972Z,8.23
2018-07-21T03:49:44.474Z,7.87
2018-07-21T03:52:13.446Z,8.33
2018-07-21T03:54:41.887Z,10.10
2018-07-21T03:57:10.792Z,8.20
2018-07-21T03:59:39.680Z,8.83
2018-07-21T04:02:08.596Z,8.50
2018-07-21T04:04:37.687Z,8.17
2018-07-21T04:07:06.199Z,7.83
2018-07-21T04:09:35.033Z,9.10
2018-07-21T04:12:03.919Z,8.80
2018-07-21T04:14:32.810Z,8.90
2018-07-21T04:17:01.717Z,9.10
2018-07-21T04:19:30.599Z,8.83
2018-07-21T04:21:59.540Z,8.97
2018-07-21T04:24:28.394Z,8.93
2018-07-21T04:26:57.343Z,8.83
2018-07-21T04:29:26.189Z,9.30
2018-07-21T04:31:55.104Z,8.90
2018-07-21T04:34:24.005Z,8.90
2018-07-21T04:36:52.902Z,9.07
2018-07-21T04:39:21.801Z,9.27
2018-07-21T04:41:50.684Z,9.40
2018-07-21T04:44:19.580Z,9.57
2018-07-21T04:46:48.423Z,9.77
2018-07-21T04:49:17.337Z,10.00
2018-07-21T04:51:46.257Z,10.00
2018-07-21T04:54:15.109Z,9.73
2018-07-21T04:56:44.687Z,9.93
2018-07-21T04:59:13.576Z,9.63
2018-07-21T05:01:42.476Z,10.23
2018-07-21T05:04:11.568Z,10.20
2018-07-21T05:06:40.449Z,9.53
2018-07-21T05:09:11.400Z,9.80
2018-07-21T05:11:40.608Z,10.30
2018-07-21T05:14:09.800Z,9.60
2018-07-21T05:16:39.256Z,9.73
2018-07-21T05:19:08.928Z,8.77
2018-07-21T05:21:38.144Z,9.93
2018-07-21T05:24:07.433Z,9.53
2018-07-21T05:26:36.337Z,9.97
2018-07-21T05:29:05.276Z,9.43
2018-07-21T05:31:36.102Z,10.17
2018-07-21T05:34:04.977Z,9.90
2018-07-21T05:36:33.892Z,9.80
2018-07-21T05:39:02.898Z,10.73
2018-07-21T05:41:31.807Z,9.70
2018-07-21T05:44:00.737Z,10.07
2018-07-21T05:46:29.732Z,10.20
2018-07-21T05:48:58.621Z,10.40
2018-07-21T05:51:28.487Z,10.07
2018-07-21T05:53:57.367Z,10.43
2018-07-21T05:56:26.508Z,10.53
2018-07-21T05:58:55.395Z,10.13
2018-07-21T06:01:24.271Z,10.03
2018-07-21T06:03:53.223Z,10.10
2018-07-21T06:06:22.199Z,10.13
2018-07-21T06:08:51.089Z,9.97
2018-07-21T06:11:20.000Z,9.73
2018-07-21T06:13:48.931Z,10.03
2018-07-21T06:16:18.183Z,9.47
2018-07-21T06:18:47.113Z,9.83
2018-07-21T06:21:16.044Z,9.53
2018-07-21T06:23:44.990Z,9.13
2018-07-21T06:26:13.518Z,9.13
2018-07-21T06:28:42.436Z,9.03
2018-07-21T06:31:11.351Z,9.90
2018-07-21T06:33:40.328Z,10.07
2018-07-21T06:36:09.227Z,9.53
2018-07-21T06:38:38.172Z,8.80
2018-07-21T06:41:07.293Z,9.33
2018-07-21T06:43:36.161Z,8.80
2018-07-21T06:46:05.113Z,9.10
2018-07-21T06:48:34.012Z,9.30
2018-07-21T06:51:02.987Z,8.83
2018-07-21T06:53:31.423Z,8.13
2018-07-21T06:56:00.316Z,8.37
2018-07-21T06:58:29.195Z,8.37
2018-07-21T07:00:58.153Z,7.80
2018-07-21T07:03:27.079Z,8.20
2018-07-21T07:05:55.992Z,8.00
2018-07-21T07:08:24.907Z,8.30
2018-07-21T07:10:53.793Z,7.87
2018-07-21T07:13:22.663Z,7.53
2018-07-21T07:15:51.584Z,7.37
2018-07-21T07:18:20.019Z,7.37
2018-07-21T07:20:49.029Z,6.60
2018-07-21T07:23:17.964Z,7.00
2018-07-21T07:25:46.889Z,7.10
2018-07-21T07:28:15.748Z,7.27
2018-07-21T07:30:44.704Z,7.50
2018-07-21T07:33:13.612Z,6.70
2018-07-21T07:35:42.109Z,7.30
2018-07-21T07:38:11.002Z,7.00
2018-07-21T07:40:39.934Z,7.00
2018-07-21T07:43:09.148Z,6.67
2018-07-21T07:45:38.067Z,6.80
2018-07-21T07:48:06.915Z,7.00
2018-07-21T07:50:35.808Z,7.43
2018-07-21T07:53:04.713Z,7.23
2018-07-21T07:55:34.348Z,6.97
2018-07-21T07:58:04.624Z,7.07
2018-07-21T08:00:33.624Z,7.13
2018-07-21T08:03:02.814Z,7.27
2018-07-21T08:05:31.827Z,6.77
2018-07-21T08:08:00.760Z,6.93
2018-07-21T08:10:29.696Z,6.93
2018-07-21T08:12:58.593Z,6.97
2018-07-21T08:15:27.509Z,6.13
2018-07-21T08:17:56.415Z,5.80
2018-07-21T08:20:24.916Z,5.00
2018-07-21T08:22:53.812Z,4.77
2018-07-21T08:25:22.687Z,4.53
2018-07-21T08:27:51.612Z,4.30
2018-07-21T08:30:20.544Z,4.80
2018-07-21T08:32:49.408Z,4.10
2018-07-21T08:35:18.374Z,4.03
2018-07-21T08:37:47.277Z,4.07
2018-07-21T08:40:16.175Z,4.17
2018-07-21T08:42:47.192Z,3.70
2018-07-21T08:45:16.112Z,3.50
2018-07-21T08:47:45.028Z,4.10
2018-07-21T08:50:13.993Z,3.70
2018-07-21T08:52:42.977Z,3.47
2018-07-21T08:55:11.909Z,3.40
2018-07-21T08:57:40.785Z,3.37
2018-07-21T09:00:09.689Z,2.90
2018-07-21T09:02:38.565Z,2.83
2018-07-21T09:05:07.784Z,2.47
2018-07-21T09:07:36.800Z,2.27
2018-07-21T09:10:07.900Z,2.33
2018-07-21T09:12:36.790Z,2.50
2018-07-21T09:15:05.862Z,2.17
2018-07-21T09:17:34.803Z,1.93
2018-07-21T09:20:03.783Z,1.90
2018-07-21T09:22:32.698Z,1.80
2018-07-21T09:25:01.584Z,2.20
2018-07-21T09:27:30.441Z,2.00
2018-07-21T09:29:59.312Z,2.20
2018-07-21T09:32:28.216Z,3.10
2018-07-21T09:34:57.118Z,2.07
2018-07-21T09:37:25.990Z,2.27
2018-07-21T09:39:54.911Z,2.00
2018-07-21T09:42:23.841Z,2.30
2018-07-21T09:44:52.692Z,2.13
2018-07-21T09:47:21.615Z,2.30
2018-07-21T09:49:50.495Z,2.80
2018-07-21T09:52:19.422Z,2.20
2018-07-21T09:54:48.314Z,2.50
2018-07-21T09:57:21.049Z,2.50
2018-07-21T09:59:51.729Z,2.10
2018-07-21T10:02:30.428Z,2.10
2018-07-21T10:04:59.467Z,2.00
2018-07-21T10:07:35.107Z,2.07
2018-07-21T10:10:18.099Z,2.30
2018-07-21T10:12:47.164Z,2.45
2018-07-21T10:15:16.072Z,2.50
2018-07-21T10:17:49.094Z,2.45
2018-07-21T10:20:28.732Z,2.10
2018-07-21T10:22:57.736Z,2.10
2018-07-21T10:27:43.315Z,2.00
2018-07-21T10:30:22.116Z,2.02
2018-07-21T10:32:51.065Z,1.98
2018-07-21T10:35:19.930Z,2.25
2018-07-21T10:37:48.824Z,2.12
2018-07-21T10:40:26.720Z,2.20
2018-07-21T10:42:55.740Z,2.00
2018-07-21T10:45:24.604Z,2.35
2018-07-21T10:47:53.835Z,2.83
2018-07-21T10:50:32.167Z,2.90
2018-07-21T10:53:01.083Z,3.50
2018-07-21T10:55:45.716Z,3.92
2018-07-21T10:58:14.569Z,3.87
2018-07-21T11:00:43.619Z,4.10
2018-07-21T11:03:12.640Z,3.98
2018-07-21T11:05:49.083Z,3.55
2018-07-21T11:08:18.094Z,4.00
2018-07-21T11:10:56.432Z,4.08
2018-07-21T11:13:25.340Z,4.70
2018-07-21T11:15:54.256Z,4.87
2018-07-21T11:18:23.114Z,5.55
2018-07-21T11:20:52.007Z,5.53
2018-07-21T11:23:20.920Z,5.65
2018-07-21T11:25:49.416Z,5.60
2018-07-21T11:28:18.338Z,5.45
2018-07-21T11:30:47.236Z,4.87
2018-07-21T11:33:16.126Z,5.42
2018-07-21T11:35:45.154Z,5.20
2018-07-21T11:38:13.969Z,5.42
2018-07-21T11:40:42.992Z,5.45
2018-07-21T11:43:11.891Z,4.90
2018-07-21T11:45:40.344Z,4.87
2018-07-21T11:48:09.324Z,5.15
2018-07-21T11:50:38.188Z,5.37
2018-07-21T11:53:07.108Z,5.75
2018-07-21T11:55:36.020Z,4.95
2018-07-21T11:58:04.949Z,5.47
2018-07-21T12:00:33.804Z,5.00
2018-07-21T12:03:02.761Z,5.28
2018-07-21T12:05:31.644Z,5.80
2018-07-21T12:08:00.552Z,5.75
2018-07-21T12:10:29.475Z,5.87
2018-07-21T12:12:58.367Z,6.00
2018-07-21T12:15:27.281Z,5.70
2018-07-21T12:17:56.150Z,6.15
2018-07-21T12:20:25.110Z,5.50
2018-07-21T12:22:54.699Z,5.80
2018-07-21T12:25:23.197Z,5.87
2018-07-21T12:27:52.142Z,5.53
2018-07-21T12:30:21.040Z,5.62
2018-07-21T12:32:50.876Z,5.95
2018-07-21T12:35:19.921Z,5.45
2018-07-21T12:37:48.862Z,5.65
2018-07-21T12:40:17.776Z,5.30
2018-07-21T12:42:46.681Z,5.65
2018-07-21T12:45:15.569Z,5.45
2018-07-21T12:47:44.500Z,5.53
2018-07-21T12:50:13.490Z,5.47
2018-07-21T12:52:42.360Z,5.42
2018-07-21T12:55:12.307Z,5.10
2018-07-21T12:57:41.249Z,5.70
2018-07-21T13:00:11.089Z,5.00
2018-07-21T13:02:40.013Z,5.17
2018-07-21T13:05:08.937Z,4.90
2018-07-21T13:07:37.903Z,5.03
2018-07-21T13:10:07.729Z,4.60
2018-07-21T13:12:36.271Z,4.80
2018-07-21T13:15:05.924Z,4.75
2018-07-21T13:17:34.884Z,4.58
2018-07-21T13:20:04.072Z,4.90
2018-07-21T13:22:32.952Z,4.37
2018-07-21T13:25:02.224Z,4.35
2018-07-21T13:27:31.260Z,4.42
2018-07-21T13:30:00.184Z,4.75
2018-07-21T13:32:29.120Z,4.17
2018-07-21T13:34:58.027Z,4.40
2018-07-21T13:37:27.095Z,4.37
2018-07-21T13:39:55.893Z,4.62
2018-07-21T13:42:25.041Z,4.60
2018-07-21T13:44:53.904Z,4.62
2018-07-21T13:47:22.776Z,4.00
2018-07-21T13:49:51.630Z,3.92
2018-07-21T13:52:20.564Z,3.45
2018-07-21T13:54:49.661Z,3.40
2018-07-21T13:57:18.576Z,4.03
2018-07-21T13:59:47.543Z,3.47
2018-07-21T14:02:16.848Z,3.22
2018-07-21T14:04:45.734Z,3.12
2018-07-21T14:07:14.668Z,3.67
2018-07-21T14:09:43.104Z,3.42
2018-07-21T14:12:12.349Z,3.45
2018-07-21T14:14:41.241Z,3.55
2018-07-21T14:17:10.281Z,3.50
2018-07-21T14:19:39.224Z,3.70
2018-07-21T14:22:07.723Z,3.83
2018-07-21T14:24:36.627Z,3.65
2018-07-21T14:27:05.583Z,4.17
2018-07-21T14:29:34.581Z,4.00
2018-07-21T14:32:03.440Z,4.28
2018-07-21T14:34:32.363Z,4.03
2018-07-21T14:37:01.232Z,3.80
2018-07-21T14:39:30.149Z,3.77
2018-07-21T14:41:59.041Z,4.12
2018-07-21T14:44:27.993Z,3.95
2018-07-21T14:46:56.889Z,3.83
2018-07-21T14:49:25.835Z,4.03
2018-07-21T14:51:54.716Z,4.03
2018-07-21T14:54:23.643Z,4.15
2018-07-21T14:56:52.564Z,4.22
2018-07-21T14:59:22.452Z,3.85
2018-07-21T15:01:51.384Z,3.70
2018-07-21T15:04:20.186Z,4.10
2018-07-21T15:06:49.139Z,4.00
2018-07-21T15:09:18.412Z,5.78
2018-07-21T15:11:47.401Z,4.78
2018-07-21T15:14:16.305Z,4.55
2018-07-21T15:16:45.258Z,4.15
2018-07-21T15:19:14.793Z,4.30
2018-07-21T15:21:43.738Z,4.20
2018-07-21T15:24:12.601Z,4.37
2018-07-21T15:26:41.508Z,4.10
2018-07-21T15:29:10.396Z,4.97
2018-07-21T15:31:40.224Z,4.35
2018-07-21T15:34:09.115Z,4.60
2018-07-21T15:36:38.052Z,4.10
2018-07-21T15:39:08.604Z,4.62
2018-07-21T15:41:37.553Z,4.42
2018-07-21T15:44:06.466Z,4.87
2018-07-21T15:46:35.649Z,4.97
2018-07-21T15:49:04.601Z,5.03
2018-07-21T15:51:33.459Z,4.75
2018-07-21T15:54:02.364Z,5.08
2018-07-21T15:56:31.235Z,4.58
2018-07-21T15:59:00.187Z,4.90
2018-07-21T16:01:29.130Z,4.83
2018-07-21T16:03:58.012Z,4.78
2018-07-21T16:06:26.995Z,4.70
2018-07-21T16:08:55.913Z,4.67
2018-07-21T16:11:24.781Z,4.80
2018-07-21T16:13:53.669Z,4.97
2018-07-21T16:16:22.498Z,5.10
2018-07-21T16:18:50.976Z,5.25
2018-07-21T16:21:20.424Z,4.87
2018-07-21T16:23:49.316Z,5.00
2018-07-21T16:26:18.200Z,5.30
2018-07-21T16:28:47.113Z,4.83
2018-07-21T16:31:15.965Z,5.10
2018-07-21T16:33:44.979Z,5.17
2018-07-21T16:36:13.897Z,5.37
2018-07-21T16:38:43.097Z,4.97
2018-07-21T16:41:12.077Z,5.80
2018-07-21T16:43:40.993Z,4.97
2018-07-21T16:46:09.904Z,4.83
2018-07-21T16:48:38.351Z,4.90
2018-07-21T16:51:07.640Z,4.67
2018-07-21T16:53:36.529Z,5.03
2018-07-21T16:56:05.451Z,4.95
2018-07-21T16:58:34.364Z,5.53
2018-07-21T17:01:03.259Z,5.33
2018-07-21T17:03:32.078Z,4.87
2018-07-21T17:06:00.988Z,5.20
2018-07-21T17:08:29.885Z,5.22
2018-07-21T17:10:58.783Z,4.75
2018-07-21T17:13:27.749Z,5.00
2018-07-21T17:15:56.688Z,4.95
2018-07-21T17:18:25.733Z,5.22
2018-07-21T17:20:54.641Z,5.05
2018-07-21T17:23:23.580Z,5.55
2018-07-21T17:25:52.448Z,5.37
2018-07-21T17:28:21.336Z,5.20
2018-07-21T17:30:50.300Z,5.17
2018-07-21T17:33:19.237Z,5.30
2018-07-21T17:35:47.798Z,5.35
2018-07-21T17:38:17.366Z,5.30
2018-07-21T17:40:46.293Z,4.80
2018-07-21T17:43:15.156Z,4.80
2018-07-21T17:45:44.084Z,4.65
2018-07-21T17:48:12.972Z,5.35
2018-07-21T17:50:41.906Z,4.95
2018-07-21T17:53:10.448Z,4.70
2018-07-21T17:55:40.333Z,5.05
2018-07-21T17:58:09.229Z,5.25
2018-07-21T18:00:38.126Z,5.00
2018-07-21T18:03:07.100Z,4.83
2018-07-21T18:05:36.017Z,5.42
2018-07-21T18:08:05.709Z,5.10
2018-07-21T18:10:34.675Z,5.45
2018-07-21T18:13:03.547Z,5.05
2018-07-21T18:15:32.051Z,5.28
2018-07-21T18:18:01.112Z,5.53
2018-07-21T18:20:30.228Z,5.08
2018-07-21T18:23:00.070Z,5.00
2018-07-21T18:25:29.392Z,4.97
2018-07-21T18:27:58.599Z,5.77
2018-07-21T18:30:27.779Z,5.50
2018-07-21T18:32:56.977Z,5.57
2018-07-21T18:35:26.196Z,5.47
2018-07-21T18:37:55.377Z,5.40
2018-07-21T18:40:24.606Z,5.50
2018-07-21T18:42:53.771Z,5.00
2018-07-21T18:45:23.133Z,5.63
2018-07-21T18:47:52.421Z,5.37
2018-07-21T18:50:21.638Z,5.60
2018-07-21T18:52:50.801Z,5.50
2018-07-21T18:55:20.055Z,6.13
2018-07-21T18:57:48.996Z,5.20
2018-07-21T19:00:17.940Z,5.90
2018-07-21T19:02:47.081Z,6.10
2018-07-21T19:05:16.009Z,5.60
2018-07-21T19:07:44.913Z,5.97
2018-07-21T19:10:14.480Z,5.80
2018-07-21T19:12:48.515Z,5.97
2018-07-21T19:15:22.651Z,5.90
2018-07-21T19:17:52.025Z,6.13
2018-07-21T19:20:26.173Z,6.27
2018-07-21T19:22:55.080Z,5.70
2018-07-21T19:25:29.206Z,5.53
2018-07-21T19:27:58.133Z,6.40
2018-07-21T19:30:27.017Z,6.50
2018-07-21T19:33:01.024Z,6.70
2018-07-21T19:35:31.232Z,6.67
2018-07-21T19:37:59.735Z,6.13
2018-07-21T19:40:28.219Z,6.13
2018-07-21T19:42:57.104Z,6.67
2018-07-21T19:45:26.452Z,6.10
2018-07-21T19:47:55.464Z,6.07
2018-07-21T19:50:24.397Z,5.77
2018-07-21T19:52:53.411Z,5.57
2018-07-21T19:55:23.130Z,5.60
2018-07-21T19:57:52.022Z,5.83
2018-07-21T20:00:20.944Z,6.33
2018-07-21T20:02:49.879Z,5.90
2018-07-21T20:05:18.806Z,6.07
2018-07-21T20:07:47.772Z,6.50
2018-07-21T20:10:16.677Z,6.17
2018-07-21T20:12:45.638Z,6.07
2018-07-21T20:15:14.584Z,5.73
2018-07-21T20:17:43.461Z,5.57
2018-07-21T20:20:12.346Z,5.53
2018-07-21T20:22:41.244Z,4.83
2018-07-21T20:25:10.180Z,5.13
2018-07-21T20:27:38.667Z,5.20
2018-07-21T20:30:07.166Z,5.00
2018-07-21T20:32:36.057Z,4.90
2018-07-21T20:35:04.996Z,4.73
2018-07-21T20:37:33.963Z,5.50
2018-07-21T20:40:02.557Z,5.13
2018-07-21T20:42:31.441Z,5.33
2018-07-21T20:45:00.336Z,5.00
2018-07-21T20:47:29.253Z,5.17
2018-07-21T20:49:58.201Z,5.80
2018-07-21T20:52:27.733Z,5.20
2018-07-21T20:54:56.714Z,5.50
2018-07-21T20:57:25.624Z,5.20
2018-07-21T20:59:54.697Z,4.87
2018-07-21T21:02:23.644Z,4.70
2018-07-21T21:04:52.200Z,4.90
2018-07-21T21:07:21.120Z,5.10
2018-07-21T21:09:49.967Z,4.67
2018-07-21T21:12:18.983Z,5.23
2018-07-21T21:14:47.524Z,5.53
2018-07-21T21:17:16.428Z,3.80
2018-07-21T21:19:45.334Z,4.17
2018-07-21T21:22:14.420Z,4.33
2018-07-21T21:24:45.124Z,4.70
2018-07-21T21:27:14.093Z,5.57
2018-07-21T21:29:42.952Z,4.90
2018-07-21T21:32:12.564Z,4.63
2018-07-21T21:34:42.413Z,4.47
2018-07-21T21:37:11.353Z,4.20
2018-07-21T21:39:40.221Z,4.50
2018-07-21T21:42:09.231Z,4.70
2018-07-21T21:44:38.127Z,5.10
2018-07-21T21:47:07.024Z,5.90
2018-07-21T21:49:35.886Z,6.47
2018-07-21T21:52:05.439Z,8.10
2018-07-21T21:54:33.930Z,8.10
2018-07-21T21:57:02.860Z,6.10
2018-07-21T21:59:31.764Z,5.80
2018-07-21T22:02:00.686Z,4.73
2018-07-21T22:04:29.583Z,5.03
2018-07-21T22:06:58.560Z,4.93
2018-07-21T22:09:28.364Z,4.50
2018-07-21T22:11:57.264Z,5.20
2018-07-21T22:14:26.154Z,6.00
2018-07-21T22:16:55.101Z,5.63
2018-07-21T22:19:24.765Z,5.50
2018-07-21T22:21:53.704Z,5.53
2018-07-21T22:24:24.465Z,5.10
2018-07-21T22:26:53.344Z,5.17
2018-07-21T22:29:22.524Z,5.20
2018-07-21T22:31:51.504Z,5.20
2018-07-21T22:34:21.040Z,5.23
2018-07-21T22:36:49.900Z,4.80
2018-07-21T22:39:18.852Z,5.03
2018-07-21T22:41:47.834Z,4.73
2018-07-21T22:44:16.769Z,5.03
2018-07-21T22:46:45.620Z,5.03
2018-07-21T22:49:14.536Z,4.90
2018-07-21T22:51:43.656Z,4.83
2018-07-21T22:54:12.577Z,5.13
2018-07-21T22:56:41.498Z,4.83
2018-07-21T22:59:11.016Z,4.40
2018-07-21T23:01:39.762Z,4.57
2018-07-21T23:04:08.737Z,4.17
2018-07-21T23:06:37.641Z,4.17
2018-07-21T23:09:07.428Z,4.60
2018-07-21T23:11:36.407Z,4.33
2018-07-21T23:14:05.385Z,4.97
2018-07-21T23:16:33.864Z,4.10
2018-07-21T23:19:02.785Z,4.10
2018-07-21T23:21:31.772Z,3.80
2018-07-21T23:24:00.676Z,4.10
2018-07-21T23:26:29.611Z,4.37
2018-07-21T23:28:58.565Z,4.20
2018-07-21T23:31:28.264Z,3.70
2018-07-21T23:33:57.177Z,4.30
2018-07-21T23:36:26.085Z,4.70
2018-07-21T23:38:55.228Z,4.70
2018-07-21T23:41:24.104Z,4.63
2018-07-21T23:43:52.558Z,4.90
2018-07-21T23:46:21.464Z,4.03
2018-07-21T23:48:50.369Z,3.90
2018-07-21T23:51:19.803Z,3.87
2018-07-21T23:53:48.693Z,3.90
2018-07-21T23:56:17.588Z,4.20
2018-07-21T23:58:46.566Z,4.23
